National Weather Service Raw Text Product

Displaying AFOS PIL: TAFFOD Received: 2018-01-12 11:32 UTC


697 
FTUS43 KDMX 121132
TAFFOD
TAF
KFOD 121132Z 1212/1312 35010KT P6SM SKC
     FM122300 36006KT P6SM BKN110=